Spring Lake, Louisiana
Current Conditions -  °F | °C
As of 7:56 PM on Thursday 20 Nov 2014 (Local Time) from KSHV Reporting Station
Broken Clouds Broken Clouds  
Wind Chill: 58°   Ceiling: 4500
Heat Index: 58°   Visibility: 8mi
Dew Point: 56°   Wind: 0mph
Humidity: 93%   Direction: NA
Pressure: 30.11"   Gusts: NA
Location:  32.3873°N, 93.7356°W
Report Text: KSHV 210156Z 00000KT 8SM BKN045 14/13 A3011 RMK AO2 SLP196 T01440133
Loading
Personal Weather Stations






























Interactive Weather Map New forecast layout! Learn more

10-Day Weather Forecast

Advertisements
Track Severe Weather on mobile